Hovedside
METAR-TAF:

METAR-TAF

Lufthavner :

Roman Tmetuchl internasjonale lufthavn

Koror, Babeldaob, Palau

breddegrad: 07-22N, lengdegrad: 134-32E, høyde over havet: 54 m

Gjeldene værobservasjon

Denne rapporten ble laget for 38 minutter siden, klokken 16:50 UTC
Vind 5 kt fra Sørvest
Temperatur 26°C
Luftfuktighet 89%
Trykk 1008 hPa
Sikt: 22.5 km
Spredte skyer i en høyde av 1600 ft, Tårnskyer (cumulus).
Brutte skyer i en høyde av 12000 ft
Overskyet i en høyde av 30000 ft

METAR: PTRO 231650Z 22005KT 14SM SCT016TCU BKN120 OVC300 26/24 A2977 RMK TCU SW-NW

Tid: 02:28 (17:28 UTC)

Varsel

Denne rapporten ble laget for 5 timer og 53 minutter siden, klokken 11:35 UTC
Varsel gyldig fra 23. klokken 12 UTC til 24. klokken 12 UTC
Vind 11 kt fra Vest
Sikt: 10 km
Spredte skyer i en høyde av 1500 ft
Brutte skyer i en høyde av 12000 ft
regnbyger i nærheten

TAF: PTRO 231135Z 2312/2412 26011KT P6SM VCSH SCT015 BKN120

Værobservasjoner og værvarsel for over 4000 flyplasser (METAR- og TAF-rapporter).

Tilgjengelige stasjoner er representert av de røde og gule prikkene på kartet.

Hold musepekeren over prikken for å se navnet på stasjonen.

Klikk så for å se værobservasjoner og -varsler.

For å forandre kartet kan du klikke på den grønne knappen med svart kryss for å zoome inn, på den grønne knappen med strek for å zoome ut, eller på de grønne pilene for å se tilstøtende kart.


METAR-TAF: